Time;durP1;ratioP1;P1;durP2;ratioP2;P2;SDS_P1;SDS_P2;PMS_P1;PMS_P2;Temp;Humidity;BMP_temperature;BMP_pressure;BME280_temperature;BME280_humidity;BME280_pressure;Samples;Min_cycle;Max_cycle;Signal;HPM_P1;HPM_P2
2023/09/15 00:00:20;;;;;;;5.15;4.10;;;18.80;99.90;;;;;;5051144;28;20032;-59
2023/09/15 00:02:47;;;;;;;4.55;4.00;;;18.60;99.90;;;;;;5051083;28;20040;-59
2023/09/15 00:05:14;;;;;;;5.05;4.25;;;18.40;99.90;;;;;;5050903;28;20068;-60
2023/09/15 00:07:39;;;;;;;4.32;3.85;;;18.30;99.90;;;;;;5051060;28;20017;-58
2023/09/15 00:10:11;;;;;;;5.60;3.88;;;18.30;99.90;;;;;;5050892;28;20171;-59
2023/09/15 00:12:39;;;;;;;6.25;4.20;;;18.20;99.90;;;;;;5051102;28;20074;-60
2023/09/15 00:15:08;;;;;;;6.85;4.40;;;18.30;99.90;;;;;;5050887;28;20025;-59
2023/09/15 00:17:39;;;;;;;5.03;4.20;;;18.30;99.90;;;;;;5050787;28;20033;-59
2023/09/15 00:20:14;;;;;;;5.75;4.22;;;18.30;99.90;;;;;;5050781;28;20036;-60
2023/09/15 00:22:41;;;;;;;6.43;4.57;;;18.20;99.90;;;;;;5051266;28;20025;-59
2023/09/15 00:25:08;;;;;;;5.25;3.83;;;18.20;99.90;;;;;;5050825;28;20363;-59
2023/09/15 00:27:33;;;;;;;5.43;4.38;;;18.20;99.90;;;;;;5049445;28;20045;-59
2023/09/15 00:29:59;;;;;;;5.22;4.45;;;18.10;99.90;;;;;;5050550;28;20044;-60
2023/09/15 00:32:25;;;;;;;5.43;4.53;;;18.20;99.90;;;;;;5051012;28;20028;-59
2023/09/15 00:34:51;;;;;;;6.18;4.28;;;18.10;99.90;;;;;;5050647;28;20032;-60
2023/09/15 00:37:17;;;;;;;4.80;4.30;;;18.00;99.90;;;;;;5050825;28;20021;-59
2023/09/15 00:39:42;;;;;;;7.57;4.80;;;18.00;99.90;;;;;;5050720;28;20059;-60
2023/09/15 00:42:08;;;;;;;4.97;4.40;;;18.00;99.90;;;;;;5050671;28;20505;-59
2023/09/15 00:44:34;;;;;;;6.68;4.53;;;18.00;99.90;;;;;;5050431;28;20104;-59
2023/09/15 00:47:00;;;;;;;5.07;4.32;;;18.20;99.90;;;;;;5050538;28;20425;-59
2023/09/15 00:49:25;;;;;;;5.18;4.55;;;18.40;99.90;;;;;;5050535;28;20044;-59
2023/09/15 00:51:51;;;;;;;6.75;4.55;;;18.50;99.90;;;;;;5050712;28;20021;-59
2023/09/15 00:54:17;;;;;;;5.00;4.50;;;18.60;99.90;;;;;;5050837;28;20557;-58
2023/09/15 00:56:44;;;;;;;4.93;4.50;;;18.60;99.90;;;;;;5050575;28;20031;-59
2023/09/15 00:59:10;;;;;;;5.00;4.50;;;18.60;99.90;;;;;;5050149;28;20032;-58
2023/09/15 01:01:39;;;;;;;5.30;4.40;;;18.60;99.90;;;;;;5050429;28;20029;-59
2023/09/15 01:04:07;;;;;;;5.47;4.30;;;18.70;99.90;;;;;;5050526;28;20478;-59
2023/09/15 01:06:36;;;;;;;6.93;4.53;;;18.70;99.90;;;;;;5054434;28;20506;-59
2023/09/15 01:09:03;;;;;;;4.93;4.43;;;18.60;99.90;;;;;;5053986;28;20086;-59
2023/09/15 01:11:29;;;;;;;4.65;4.10;;;18.70;99.90;;;;;;5054024;28;20029;-59
2023/09/15 01:13:55;;;;;;;5.10;4.60;;;18.60;99.90;;;;;;5053931;28;20141;-57
2023/09/15 01:16:39;;;;;;;5.10;4.60;;;18.50;99.90;;;;;;5053674;28;20391;-59
2023/09/15 01:19:16;;;;;;;5.32;4.57;;;18.40;99.90;;;;;;5054222;28;20455;-59
2023/09/15 01:22:05;;;;;;;7.50;4.88;;;18.20;99.90;;;;;;5053721;28;20032;-59
2023/09/15 01:25:12;;;;;;;6.82;4.63;;;18.10;99.90;;;;;;5053840;28;20048;-59
2023/09/15 01:28:04;;;;;;;5.30;4.63;;;18.00;99.90;;;;;;5053588;28;20524;-59
2023/09/15 01:30:30;;;;;;;7.00;5.30;;;17.90;99.90;;;;;;5052541;28;20041;-59
2023/09/15 01:32:59;;;;;;;6.05;5.55;;;17.80;99.90;;;;;;5053589;28;20025;-59
2023/09/15 01:35:25;;;;;;;6.35;5.70;;;17.70;99.90;;;;;;5052185;28;20029;-59
2023/09/15 01:37:51;;;;;;;6.00;5.50;;;17.70;99.90;;;;;;5053596;28;20363;-59
2023/09/15 01:40:17;;;;;;;5.72;5.22;;;17.60;99.90;;;;;;5053446;28;20028;-59
2023/09/15 01:42:46;;;;;;;8.02;5.60;;;17.60;99.90;;;;;;5053525;28;20029;-58
2023/09/15 01:45:12;;;;;;;6.00;5.40;;;17.60;99.90;;;;;;5053219;28;20025;-59
2023/09/15 01:47:39;;;;;;;6.32;5.72;;;17.60;99.90;;;;;;5053357;28;20109;-59
2023/09/15 01:50:07;;;;;;;8.05;5.75;;;17.60;99.90;;;;;;5053134;28;20524;-59
2023/09/15 01:52:33;;;;;;;6.15;5.47;;;17.60;99.90;;;;;;5053545;28;20090;-59
2023/09/15 01:55:00;;;;;;;6.25;5.57;;;17.60;99.90;;;;;;5053273;28;20086;-59
2023/09/15 01:57:26;;;;;;;7.10;6.30;;;17.50;99.90;;;;;;5052660;28;20024;-59
2023/09/15 01:59:52;;;;;;;8.23;6.05;;;17.50;99.90;;;;;;5053521;28;20557;-59
2023/09/15 02:02:17;;;;;;;7.32;6.07;;;17.60;99.90;;;;;;5053093;28;20091;-60
2023/09/15 02:04:43;;;;;;;7.03;5.70;;;17.60;99.90;;;;;;5052968;28;20025;-59
2023/09/15 02:07:09;;;;;;;6.22;5.63;;;17.80;99.90;;;;;;5052995;28;20021;-57
2023/09/15 02:09:35;;;;;;;6.70;6.10;;;17.90;99.90;;;;;;5052761;28;20029;-58
2023/09/15 02:12:00;;;;;;;6.93;5.05;;;18.00;99.90;;;;;;5052807;28;20025;-59
2023/09/15 02:14:26;;;;;;;5.88;5.15;;;18.10;99.90;;;;;;5052883;28;20063;-59
2023/09/15 02:16:52;;;;;;;7.72;5.18;;;18.20;99.90;;;;;;5052315;28;20021;-59
2023/09/15 02:19:18;;;;;;;5.65;5.03;;;18.30;99.90;;;;;;5052771;28;20045;-59
2023/09/15 02:21:44;;;;;;;5.22;4.82;;;18.40;99.90;;;;;;5052514;28;20166;-58
2023/09/15 02:24:10;;;;;;;5.22;4.72;;;18.30;99.90;;;;;;5052553;28;20104;-59
2023/09/15 02:26:36;;;;;;;5.90;4.97;;;18.30;99.90;;;;;;5052143;28;20084;-60
2023/09/15 02:29:02;;;;;;;5.15;4.60;;;18.20;99.90;;;;;;5052769;28;20737;-59
2023/09/15 02:31:30;;;;;;;6.40;5.18;;;18.30;99.90;;;;;;5051155;28;20379;-59
2023/09/15 02:33:59;;;;;;;7.35;4.95;;;18.40;99.90;;;;;;5052551;28;20033;-59
2023/09/15 02:36:25;;;;;;;7.40;5.03;;;18.40;99.90;;;;;;5052302;28;20017;-59
2023/09/15 02:38:54;;;;;;;7.10;5.20;;;18.20;99.90;;;;;;5052368;28;20029;-59
2023/09/15 02:41:20;;;;;;;6.03;5.32;;;18.10;99.90;;;;;;5052279;28;20032;-59
2023/09/15 02:43:47;;;;;;;7.70;5.68;;;17.90;99.90;;;;;;5052306;28;20028;-59
2023/09/15 02:46:12;;;;;;;5.43;4.93;;;17.80;99.90;;;;;;5052135;28;20040;-59
2023/09/15 02:48:42;;;;;;;7.40;5.78;;;17.70;99.90;;;;;;5052394;28;20033;-59
2023/09/15 02:51:08;;;;;;;5.93;5.32;;;17.60;99.90;;;;;;5052509;28;20623;-59
2023/09/15 02:53:33;;;;;;;7.07;5.68;;;17.60;99.90;;;;;;5052048;28;20028;-58
2023/09/15 02:56:02;;;;;;;6.47;5.88;;;17.50;99.90;;;;;;5051690;28;20127;-59
2023/09/15 02:58:28;;;;;;;6.82;6.20;;;17.50;99.90;;;;;;5051995;28;20071;-59
2023/09/15 03:00:54;;;;;;;8.43;6.18;;;17.50;99.90;;;;;;5052214;28;20033;-59
2023/09/15 03:03:24;;;;;;;7.53;6.47;;;17.40;99.90;;;;;;5052090;28;20029;-59
2023/09/15 03:06:10;;;;;;;7.28;6.57;;;17.40;99.90;;;;;;5051856;28;20441;-60
2023/09/15 03:08:36;;;;;;;7.35;5.97;;;17.40;99.90;;;;;;5051657;28;20120;-59
2023/09/15 03:11:02;;;;;;;7.13;6.30;;;17.40;99.90;;;;;;5051314;28;20498;-59
2023/09/15 03:13:28;;;;;;;6.80;6.10;;;17.30;99.90;;;;;;5052149;28;20443;-59
2023/09/15 03:15:54;;;;;;;6.95;6.10;;;17.30;99.90;;;;;;5051798;28;20056;-57
2023/09/15 03:18:19;;;;;;;5.95;5.35;;;17.30;99.90;;;;;;5051576;28;20021;-59
2023/09/15 03:20:46;;;;;;;6.90;6.20;;;17.20;99.90;;;;;;5051568;28;20025;-59
2023/09/15 03:23:11;;;;;;;6.30;5.35;;;17.30;99.90;;;;;;5051906;28;20025;-60
2023/09/15 03:25:37;;;;;;;5.85;5.28;;;17.20;99.90;;;;;;5051293;28;20383;-59
2023/09/15 03:28:03;;;;;;;5.43;4.93;;;17.40;99.90;;;;;;5050763;28;20064;-58
2023/09/15 03:30:28;;;;;;;7.65;5.43;;;17.50;99.90;;;;;;5051353;28;20113;-59
2023/09/15 03:32:54;;;;;;;7.15;5.10;;;17.70;99.90;;;;;;5051591;28;20032;-59
2023/09/15 03:35:20;;;;;;;6.25;5.10;;;17.80;99.90;;;;;;5051463;28;20039;-59
2023/09/15 03:37:46;;;;;;;5.90;5.07;;;17.80;99.90;;;;;;5051749;28;20056;-59
2023/09/15 03:40:12;;;;;;;5.35;4.85;;;17.80;99.90;;;;;;5051046;28;20040;-59
2023/09/15 03:42:38;;;;;;;7.50;5.00;;;17.80;99.90;;;;;;5051456;28;20497;-58
2023/09/15 03:45:06;;;;;;;5.88;5.13;;;17.80;99.90;;;;;;5051293;28;20391;-59
2023/09/15 03:47:32;;;;;;;5.68;5.07;;;17.80;99.90;;;;;;5051266;28;20025;-59
2023/09/15 03:49:58;;;;;;;6.10;4.68;;;17.80;99.90;;;;;;5051488;28;20080;-59
2023/09/15 03:52:24;;;;;;;5.13;4.53;;;17.90;99.90;;;;;;5050902;28;20045;-59
2023/09/15 03:54:49;;;;;;;5.00;4.53;;;17.80;99.90;;;;;;5051063;28;20067;-59
2023/09/15 03:57:15;;;;;;;5.18;4.68;;;17.70;99.90;;;;;;5051195;28;20021;-59
2023/09/15 03:59:41;;;;;;;5.90;4.63;;;17.50;99.90;;;;;;5051186;28;20104;-59
2023/09/15 04:02:07;;;;;;;5.20;4.70;;;17.40;99.90;;;;;;5051061;28;20040;-59
2023/09/15 04:04:32;;;;;;;5.28;4.80;;;17.30;99.90;;;;;;5051397;28;20397;-60
2023/09/15 04:06:58;;;;;;;5.03;4.60;;;17.20;99.90;;;;;;5051028;28;20013;-59
2023/09/15 04:09:27;;;;;;;6.25;4.78;;;17.10;99.90;;;;;;5050664;28;20075;-59
2023/09/15 04:11:54;;;;;;;5.30;4.80;;;17.10;99.90;;;;;;5051563;28;20442;-59
2023/09/15 04:14:20;;;;;;;5.38;4.88;;;17.00;99.90;;;;;;5051125;28;20021;-58
2023/09/15 04:16:45;;;;;;;5.43;4.88;;;17.00;99.90;;;;;;5051053;28;20389;-59
2023/09/15 04:19:11;;;;;;;5.15;4.60;;;17.00;99.90;;;;;;5051198;28;20026;-59
2023/09/15 04:21:38;;;;;;;6.32;4.70;;;16.90;99.90;;;;;;5050899;28;20033;-59
2023/09/15 04:24:05;;;;;;;5.30;4.80;;;16.90;99.90;;;;;;5050638;28;20029;-59
2023/09/15 04:26:31;;;;;;;5.63;4.68;;;16.90;99.90;;;;;;5050949;28;20053;-58
2023/09/15 04:28:58;;;;;;;5.05;4.55;;;16.80;99.90;;;;;;5050912;28;20078;-59
2023/09/15 04:31:24;;;;;;;5.65;4.57;;;16.80;99.90;;;;;;5050887;28;20040;-59
2023/09/15 04:33:49;;;;;;;6.57;4.78;;;16.80;99.90;;;;;;5051203;28;20025;-59
2023/09/15 04:36:16;;;;;;;5.30;4.80;;;16.80;99.90;;;;;;5050483;28;20021;-58
2023/09/15 04:38:42;;;;;;;5.18;4.68;;;16.80;99.90;;;;;;5052064;28;20774;-58
2023/09/15 04:41:08;;;;;;;5.50;5.00;;;16.80;99.90;;;;;;5053311;28;20111;-59
2023/09/15 04:43:33;;;;;;;5.20;4.70;;;16.80;99.90;;;;;;5054647;28;20175;-59
2023/09/15 04:45:59;;;;;;;6.43;4.90;;;16.80;99.90;;;;;;5053202;28;20025;-59
2023/09/15 04:48:25;;;;;;;7.15;4.97;;;16.90;99.90;;;;;;5053245;28;20029;-57
2023/09/15 04:50:50;;;;;;;6.38;4.90;;;17.00;99.90;;;;;;5054471;28;20517;-58
2023/09/15 04:53:16;;;;;;;5.28;4.78;;;17.10;99.90;;;;;;5054359;28;20025;-58
2023/09/15 04:55:42;;;;;;;5.20;4.70;;;17.20;99.90;;;;;;5053079;28;20114;-59
2023/09/15 04:58:07;;;;;;;7.57;5.00;;;17.40;99.90;;;;;;5054459;28;20398;-59
2023/09/15 05:00:34;;;;;;;6.00;4.63;;;17.40;99.90;;;;;;5054323;28;20091;-59
2023/09/15 05:03:03;;;;;;;5.50;4.93;;;17.50;99.90;;;;;;5054212;28;20555;-59
2023/09/15 05:05:29;;;;;;;5.53;4.45;;;17.60;99.90;;;;;;5053588;28;20466;-60
2023/09/15 05:07:56;;;;;;;6.18;4.82;;;17.50;99.90;;;;;;5052881;28;20052;-59
2023/09/15 05:10:22;;;;;;;4.93;4.53;;;17.50;99.90;;;;;;5054049;28;20041;-59
2023/09/15 05:12:48;;;;;;;5.13;4.30;;;17.50;99.90;;;;;;5054427;28;20036;-60
2023/09/15 05:15:14;;;;;;;4.70;4.30;;;17.50;99.90;;;;;;5054028;28;20021;-59
2023/09/15 05:17:40;;;;;;;5.13;4.68;;;17.40;99.90;;;;;;5053924;28;20021;-60
2023/09/15 05:20:06;;;;;;;6.72;4.40;;;17.20;99.90;;;;;;5053894;28;20036;-60
2023/09/15 05:22:32;;;;;;;8.27;5.00;;;17.10;99.90;;;;;;5053704;28;20029;-59
2023/09/15 05:24:58;;;;;;;5.35;4.53;;;17.00;99.90;;;;;;5053737;28;20039;-59
2023/09/15 05:27:23;;;;;;;4.75;4.05;;;16.90;99.90;;;;;;5053693;28;20087;-59
2023/09/15 05:29:50;;;;;;;5.07;4.53;;;16.80;99.90;;;;;;5053803;28;20043;-59
2023/09/15 05:32:16;;;;;;;6.38;4.78;;;16.70;99.90;;;;;;5053457;28;20112;-59
2023/09/15 05:34:42;;;;;;;7.03;4.70;;;16.60;99.90;;;;;;5053250;28;20115;-60
2023/09/15 05:37:07;;;;;;;6.18;4.50;;;16.60;99.90;;;;;;5053220;28;20032;-60
2023/09/15 05:39:33;;;;;;;4.75;4.30;;;16.60;99.90;;;;;;5053887;28;20540;-58
2023/09/15 05:42:00;;;;;;;4.85;4.35;;;16.60;99.90;;;;;;5053431;28;20086;-59
2023/09/15 05:44:26;;;;;;;5.10;4.60;;;16.60;99.90;;;;;;5053478;28;20025;-59
2023/09/15 05:46:53;;;;;;;6.80;4.80;;;16.50;99.90;;;;;;5053422;28;20021;-60
2023/09/15 05:49:19;;;;;;;6.28;5.00;;;16.50;99.90;;;;;;5053370;28;20028;-60
2023/09/15 05:51:44;;;;;;;4.88;4.40;;;16.60;99.90;;;;;;5052443;28;20037;-59
2023/09/15 05:54:10;;;;;;;6.05;4.65;;;16.60;99.90;;;;;;5053319;28;20028;-59
2023/09/15 05:56:36;;;;;;;5.15;4.63;;;16.60;99.90;;;;;;5053591;28;20029;-59
2023/09/15 05:59:01;;;;;;;6.25;4.60;;;16.60;99.90;;;;;;5053147;28;20067;-59
2023/09/15 06:01:27;;;;;;;6.15;4.85;;;16.60;99.90;;;;;;5053072;28;20025;-59
2023/09/15 06:03:53;;;;;;;5.68;4.75;;;16.50;99.90;;;;;;5052607;28;20033;-60
2023/09/15 06:06:18;;;;;;;7.75;4.80;;;16.50;99.90;;;;;;5053013;28;20025;-59
2023/09/15 06:08:44;;;;;;;5.43;4.53;;;16.70;99.90;;;;;;5053054;28;20120;-59
2023/09/15 06:11:10;;;;;;;4.97;4.47;;;16.90;99.90;;;;;;5052946;28;20465;-59
2023/09/15 06:13:37;;;;;;;6.00;4.40;;;17.10;99.90;;;;;;5053178;28;20393;-59
2023/09/15 06:16:05;;;;;;;4.93;3.92;;;17.20;99.90;;;;;;5053050;28;20056;-59
2023/09/15 06:18:33;;;;;;;9.55;4.80;;;17.30;99.90;;;;;;5052404;28;20486;-60
2023/09/15 06:20:59;;;;;;;5.10;4.10;;;17.30;99.90;;;;;;5052592;28;20024;-59
2023/09/15 06:23:25;;;;;;;5.13;4.43;;;17.30;99.90;;;;;;5052780;28;20406;-60
2023/09/15 06:25:54;;;;;;;4.60;4.20;;;17.40;99.90;;;;;;5052947;28;20093;-59
2023/09/15 06:28:19;;;;;;;5.95;4.47;;;17.40;99.90;;;;;;5052517;28;20102;-59
2023/09/15 06:30:46;;;;;;;6.70;4.50;;;17.50;99.90;;;;;;5051406;28;20460;-60
2023/09/15 06:33:11;;;;;;;4.32;3.92;;;17.50;99.90;;;;;;5052204;28;20394;-59
2023/09/15 06:35:37;;;;;;;4.40;4.00;;;17.60;99.90;;;;;;5052273;28;20024;-59
2023/09/15 06:38:04;;;;;;;6.72;4.50;;;17.50;99.90;;;;;;5052660;28;20103;-59
2023/09/15 06:40:29;;;;;;;7.07;4.40;;;17.40;99.90;;;;;;5052420;28;20028;-59
2023/09/15 06:42:55;;;;;;;5.30;4.35;;;17.30;99.90;;;;;;5052301;28;20025;-59
2023/09/15 06:45:21;;;;;;;4.75;4.25;;;17.20;99.90;;;;;;5052293;28;20032;-59
2023/09/15 06:47:46;;;;;;;6.57;4.50;;;17.10;99.90;;;;;;5051801;28;20119;-59
2023/09/15 06:50:12;;;;;;;5.85;4.55;;;17.00;99.90;;;;;;5052068;28;20111;-59
2023/09/15 06:52:38;;;;;;;5.72;4.50;;;17.10;99.90;;;;;;5052060;28;20028;-58
2023/09/15 06:55:04;;;;;;;8.98;4.40;;;17.10;99.90;;;;;;5052442;28;20032;-60
2023/09/15 06:57:29;;;;;;;9.02;4.50;;;17.10;99.90;;;;;;5051999;28;20348;-59
2023/09/15 06:59:55;;;;;;;6.25;4.53;;;17.20;99.90;;;;;;5052383;28;20021;-60
2023/09/15 07:02:21;;;;;;;5.28;4.28;;;17.20;99.90;;;;;;5051330;28;20465;-60
2023/09/15 07:04:46;;;;;;;7.50;4.57;;;17.30;99.90;;;;;;5051770;28;20028;-60
2023/09/15 07:07:12;;;;;;;5.88;4.50;;;17.40;99.90;;;;;;5051791;28;20048;-59
2023/09/15 07:09:38;;;;;;;4.78;4.25;;;17.40;99.90;;;;;;5051893;28;20032;-59
2023/09/15 07:12:04;;;;;;;4.95;4.13;;;17.50;99.90;;;;;;5051993;28;20529;-60
2023/09/15 07:14:30;;;;;;;9.05;4.18;;;17.60;99.90;;;;;;5052055;28;20025;-60
2023/09/15 07:16:56;;;;;;;6.75;4.45;;;17.70;99.90;;;;;;5051652;28;20039;-58
2023/09/15 07:19:21;;;;;;;6.05;4.32;;;17.80;99.90;;;;;;5051713;28;20021;-58
2023/09/15 07:21:47;;;;;;;4.82;4.18;;;17.80;99.90;;;;;;5051629;28;20520;-59
2023/09/15 07:24:13;;;;;;;6.45;4.22;;;17.90;99.90;;;;;;5051614;28;20020;-60
2023/09/15 07:26:39;;;;;;;4.68;4.10;;;17.90;99.90;;;;;;5051338;28;20072;-59
2023/09/15 07:29:05;;;;;;;5.38;3.80;;;18.00;99.90;;;;;;5051679;28;20406;-60
2023/09/15 07:31:34;;;;;;;6.75;3.83;;;18.20;99.90;;;;;;5051019;28;20528;-60
2023/09/15 07:34:00;;;;;;;5.00;3.90;;;18.40;99.90;;;;;;5051833;28;20021;-59
2023/09/15 07:36:26;;;;;;;5.20;4.10;;;18.50;99.90;;;;;;5051382;28;20100;-59
2023/09/15 07:38:52;;;;;;;5.05;4.30;;;18.60;99.90;;;;;;5051436;28;20113;-58
2023/09/15 07:41:18;;;;;;;5.13;3.78;;;18.80;99.90;;;;;;5051401;28;20028;-60
2023/09/15 07:43:45;;;;;;;4.68;3.72;;;18.90;99.90;;;;;;5051365;28;20433;-59
2023/09/15 07:46:13;;;;;;;6.93;3.78;;;19.00;99.90;;;;;;5051230;28;20410;-59
2023/09/15 07:48:40;;;;;;;5.43;3.83;;;19.10;99.90;;;;;;5051366;28;20375;-59
2023/09/15 07:51:06;;;;;;;7.50;4.10;;;19.30;99.90;;;;;;5051235;28;20037;-60
2023/09/15 07:53:32;;;;;;;5.18;3.53;;;19.40;99.90;;;;;;5051552;28;20035;-59
2023/09/15 07:55:58;;;;;;;6.05;3.75;;;19.60;99.90;;;;;;5051115;28;20032;-58
2023/09/15 07:58:24;;;;;;;6.35;3.60;;;19.70;99.90;;;;;;5051121;28;20021;-58
2023/09/15 08:00:50;;;;;;;5.70;3.70;;;19.80;99.90;;;;;;5050950;28;20087;-59
2023/09/15 08:03:15;;;;;;;4.68;3.40;;;19.80;99.90;;;;;;5051100;28;20104;-60
2023/09/15 08:05:41;;;;;;;4.57;3.53;;;19.90;99.90;;;;;;5051116;28;20029;-59
2023/09/15 08:08:07;;;;;;;5.05;3.60;;;20.00;99.90;;;;;;5051156;28;20115;-60
2023/09/15 08:10:32;;;;;;;5.05;3.40;;;20.00;99.90;;;;;;5050967;28;20081;-60
2023/09/15 08:12:58;;;;;;;4.28;3.50;;;20.00;99.90;;;;;;5051387;28;20061;-59
2023/09/15 08:15:24;;;;;;;4.13;3.35;;;20.00;99.90;;;;;;5054619;28;20025;-59
2023/09/15 08:17:50;;;;;;;5.78;3.67;;;20.10;99.90;;;;;;5055189;28;20105;-59
2023/09/15 08:20:16;;;;;;;4.57;3.45;;;20.20;99.90;;;;;;5054852;28;20017;-60
2023/09/15 08:22:42;;;;;;;7.45;3.63;;;20.20;99.90;;;;;;5055321;28;20479;-60
2023/09/15 08:25:10;;;;;;;4.07;3.30;;;20.30;99.90;;;;;;5053662;28;20036;-59
2023/09/15 08:27:39;;;;;;;4.53;3.42;;;20.30;99.90;;;;;;5054676;28;20078;-60
2023/09/15 08:30:08;;;;;;;4.03;3.38;;;20.50;99.90;;;;;;5054327;28;20513;-60
2023/09/15 08:32:34;;;;;;;4.82;3.30;;;20.60;99.90;;;;;;5055163;28;20521;-60
2023/09/15 08:35:00;;;;;;;4.43;3.22;;;20.70;99.90;;;;;;5054386;28;20108;-60
2023/09/15 08:37:25;;;;;;;6.00;3.58;;;20.70;99.90;;;;;;5054646;28;20068;-59
2023/09/15 08:39:51;;;;;;;5.05;3.40;;;20.70;99.90;;;;;;5055031;28;20029;-59
2023/09/15 08:42:25;;;;;;;4.43;3.33;;;20.70;99.90;;;;;;5054677;28;20450;-59
2023/09/15 08:44:53;;;;;;;5.85;4.22;;;20.80;99.90;;;;;;5054011;28;20112;-59
2023/09/15 08:47:20;;;;;;;4.00;3.17;;;20.80;99.90;;;;;;5054962;28;20108;-59
2023/09/15 08:49:46;;;;;;;3.72;3.35;;;20.90;99.90;;;;;;5054365;28;20029;-59
2023/09/15 08:52:17;;;;;;;5.15;3.60;;;21.10;99.90;;;;;;5054475;28;20053;-60
2023/09/15 08:54:45;;;;;;;4.70;3.38;;;21.30;99.90;;;;;;5054444;28;20390;-59
2023/09/15 08:57:11;;;;;;;3.75;3.40;;;21.60;99.90;;;;;;5054760;28;20450;-59
2023/09/15 08:59:38;;;;;;;4.82;3.40;;;21.80;99.90;;;;;;5054268;28;20048;-59
2023/09/15 09:02:04;;;;;;;4.25;3.20;;;21.90;99.90;;;;;;5054232;28;20025;-60
2023/09/15 09:04:30;;;;;;;3.72;3.20;;;22.10;99.90;;;;;;5054180;28;20025;-60
2023/09/15 09:06:59;;;;;;;3.95;3.40;;;22.20;99.90;;;;;;5054569;28;20028;-58
2023/09/15 09:09:25;;;;;;;9.02;3.25;;;22.30;99.90;;;;;;5054106;28;20040;-60
2023/09/15 09:11:51;;;;;;;3.83;3.30;;;22.40;99.90;;;;;;5053787;28;20021;-60
2023/09/15 09:14:16;;;;;;;5.18;3.80;;;22.40;99.90;;;;;;5053848;28;20025;-60
2023/09/15 09:16:47;;;;;;;4.30;3.45;;;22.40;99.90;;;;;;5054032;28;20036;-59
2023/09/15 09:19:13;;;;;;;4.55;3.28;;;22.50;99.90;;;;;;5054366;28;20098;-60
2023/09/15 09:21:39;;;;;;;5.85;3.30;;;22.60;99.90;;;;;;5053810;28;20025;-58
2023/09/15 09:24:05;;;;;;;4.00;3.50;;;22.60;99.90;;;;;;5053810;28;20025;-60
2023/09/15 09:26:31;;;;;;;5.22;3.40;;;22.50;99.90;;;;;;5052169;28;20049;-57
2023/09/15 09:28:57;;;;;;;11.73;9.75;;;22.60;99.90;;;;;;5053959;28;20029;-59
2023/09/15 09:31:25;;;;;;;9.50;8.13;;;22.60;99.90;;;;;;5053890;28;20467;-60
2023/09/15 09:33:51;;;;;;;10.48;7.68;;;22.60;99.90;;;;;;5053730;28;20070;-60
2023/09/15 09:36:17;;;;;;;9.45;7.97;;;22.70;99.90;;;;;;5053572;28;20033;-59
2023/09/15 09:38:47;;;;;;;16.90;11.32;;;23.00;99.90;;;;;;5053772;28;20036;-60
2023/09/15 09:41:15;;;;;;;15.65;10.65;;;23.20;99.90;;;;;;5053610;28;20025;-59
2023/09/15 09:43:47;;;;;;;12.63;9.57;;;23.30;99.90;;;;;;5053419;28;20037;-59
2023/09/15 09:46:13;;;;;;;9.80;8.45;;;23.30;99.90;;;;;;5053368;28;20052;-59
2023/09/15 09:48:39;;;;;;;6.85;6.10;;;23.30;99.90;;;;;;5053501;28;20025;-59
2023/09/15 09:51:06;;;;;;;6.72;5.55;;;23.40;99.90;;;;;;5053279;28;20037;-60
2023/09/15 09:53:33;;;;;;;4.82;4.13;;;23.50;99.90;;;;;;5053642;28;20040;-59
2023/09/15 09:56:04;;;;;;;4.57;4.07;;;23.60;99.90;;;;;;5052930;28;20025;-60
2023/09/15 09:58:31;;;;;;;3.90;3.50;;;23.70;99.90;;;;;;5053334;28;20021;-60
2023/09/15 10:00:58;;;;;;;4.60;3.90;;;23.80;99.90;;;;;;5053252;28;20029;-60
2023/09/15 10:03:24;;;;;;;4.28;3.10;;;24.00;99.90;;;;;;5053002;28;20498;-60
2023/09/15 10:05:50;;;;;;;6.47;4.47;;;24.00;99.90;;;;;;5053063;28;20075;-60
2023/09/15 10:08:16;;;;;;;10.23;5.00;;;24.10;99.90;;;;;;5053345;28;20036;-59
2023/09/15 10:10:44;;;;;;;6.88;4.43;;;24.10;99.90;;;;;;5052468;28;20037;-60
2023/09/15 10:13:16;;;;;;;5.13;4.07;;;24.40;99.90;;;;;;5053021;28;20028;-59
2023/09/15 10:15:44;;;;;;;3.72;3.38;;;24.60;99.90;;;;;;5052920;28;20036;-60
2023/09/15 10:18:15;;;;;;;6.22;4.30;;;24.70;99.90;;;;;;5052860;28;20025;-59
2023/09/15 10:20:46;;;;;;;4.78;4.03;;;24.90;99.90;;;;;;5052765;28;20486;-59
2023/09/15 10:23:13;;;;;;;4.28;3.88;;;25.00;99.90;;;;;;5052779;28;20036;-59
2023/09/15 10:25:50;;;;;;;4.53;3.55;;;25.10;99.90;;;;;;5052190;28;20090;-59
2023/09/15 10:28:19;;;;;;;4.43;3.97;;;25.30;99.90;;;;;;5052505;28;20570;-59
2023/09/15 10:30:46;;;;;;;4.28;3.88;;;25.40;99.90;;;;;;5052751;28;20576;-59
2023/09/15 10:33:12;;;;;;;3.50;3.17;;;25.60;99.90;;;;;;5052337;28;20025;-59
2023/09/15 10:35:44;;;;;;;3.72;3.20;;;25.60;99.90;;;;;;5052841;28;20036;-60
2023/09/15 10:38:10;;;;;;;3.77;3.20;;;25.80;99.90;;;;;;5052223;28;20048;-60
2023/09/15 10:40:46;;;;;;;4.72;3.25;;;25.80;99.90;;;;;;5051995;28;20033;-59
2023/09/15 10:43:13;;;;;;;4.15;3.25;;;25.90;99.90;;;;;;5052833;28;20035;-60
2023/09/15 10:45:39;;;;;;;3.85;3.03;;;26.00;99.90;;;;;;5052505;28;20063;-59
2023/09/15 10:48:05;;;;;;;3.88;2.80;;;26.00;99.90;;;;;;5052271;28;20115;-60
2023/09/15 10:50:36;;;;;;;4.35;3.13;;;26.00;99.90;;;;;;5052238;28;20037;-59
2023/09/15 10:53:11;;;;;;;2.88;2.63;;;26.00;99.90;;;;;;5052128;28;20036;-60
2023/09/15 10:55:38;;;;;;;3.65;2.90;;;26.00;99.90;;;;;;5052027;28;20029;-59
2023/09/15 10:58:04;;;;;;;4.03;2.70;;;26.00;99.90;;;;;;5052041;28;20024;-60
2023/09/15 11:00:31;;;;;;;3.80;2.95;;;26.10;99.90;;;;;;5050759;28;20033;-60
2023/09/15 11:02:57;;;;;;;3.65;3.13;;;26.40;99.90;;;;;;5052119;28;20021;-60
2023/09/15 11:05:25;;;;;;;3.10;2.80;;;26.40;99.90;;;;;;5052112;28;20436;-60
2023/09/15 11:07:51;;;;;;;2.80;2.60;;;26.40;99.90;;;;;;5051648;28;20027;-60
2023/09/15 11:10:17;;;;;;;5.22;2.72;;;26.30;99.90;;;;;;5051719;28;20824;-59
2023/09/15 11:12:42;;;;;;;2.67;2.47;;;26.30;99.90;;;;;;5051871;28;20025;-60
2023/09/15 11:15:09;;;;;;;3.33;2.60;;;26.20;99.90;;;;;;5051673;28;20045;-60
2023/09/15 11:17:34;;;;;;;2.83;2.50;;;26.30;99.90;;;;;;5051819;28;20032;-59
2023/09/15 11:20:05;;;;;;;3.00;2.70;;;26.30;99.90;;;;;;5051685;28;20025;-59
2023/09/15 11:22:33;;;;;;;2.95;2.60;;;26.40;99.90;;;;;;5051414;28;20036;-58
2023/09/15 11:24:59;;;;;;;6.13;3.70;;;26.40;99.90;;;;;;5051840;28;20025;-59
2023/09/15 11:27:24;;;;;;;5.18;3.15;;;26.40;99.90;;;;;;5051422;28;20107;-60
2023/09/15 11:29:50;;;;;;;6.15;4.57;;;26.50;99.90;;;;;;5051507;28;20037;-60
2023/09/15 11:32:16;;;;;;;10.27;6.68;;;26.50;99.90;;;;;;5051779;28;20059;-60
2023/09/15 11:34:41;;;;;;;10.45;7.22;;;26.60;99.90;;;;;;5051436;28;20021;-60
2023/09/15 11:37:08;;;;;;;14.93;10.05;;;26.80;99.90;;;;;;5051151;28;20158;-60
2023/09/15 11:39:34;;;;;;;10.70;6.95;;;26.80;99.90;;;;;;5051544;28;20014;-60
2023/09/15 11:42:09;;;;;;;6.10;5.25;;;26.90;99.90;;;;;;5051491;28;20040;-60
2023/09/15 11:44:34;;;;;;;4.80;4.10;;;27.10;99.90;;;;;;5051333;28;20025;-59
2023/09/15 11:47:01;;;;;;;4.85;2.85;;;27.00;99.90;;;;;;5051351;28;20524;-60
2023/09/15 11:49:29;;;;;;;4.30;2.70;;;27.10;99.90;;;;;;5050439;28;20036;-60
2023/09/15 11:51:56;;;;;;;2.85;2.65;;;27.10;99.90;;;;;;5051301;28;20171;-59
2023/09/15 11:54:22;;;;;;;3.95;2.95;;;27.30;99.90;;;;;;5051193;28;20025;-59
2023/09/15 11:56:48;;;;;;;3.17;2.88;;;27.30;99.90;;;;;;5051174;28;20061;-60
2023/09/15 11:59:17;;;;;;;3.00;2.70;;;27.20;99.90;;;;;;5051213;28;20106;-60
2023/09/15 12:01:45;;;;;;;3.10;2.80;;;27.20;99.90;;;;;;5051448;28;20064;-59
2023/09/15 12:04:11;;;;;;;3.17;2.53;;;27.30;99.90;;;;;;5051007;28;20092;-60
2023/09/15 12:06:37;;;;;;;2.83;2.53;;;27.20;99.90;;;;;;5050744;28;20123;-59
2023/09/15 12:09:03;;;;;;;2.85;2.42;;;27.30;99.90;;;;;;5050995;28;20086;-60
2023/09/15 12:11:29;;;;;;;3.75;2.55;;;27.40;99.90;;;;;;5051029;28;20040;-59
2023/09/15 12:13:56;;;;;;;4.22;2.55;;;27.60;99.90;;;;;;5051348;28;20429;-60
2023/09/15 12:16:27;;;;;;;3.58;2.60;;;27.90;99.90;;;;;;5050932;28;20039;-60
2023/09/15 12:18:53;;;;;;;2.95;2.67;;;28.00;99.90;;;;;;5051033;28;20037;-59
2023/09/15 12:21:24;;;;;;;2.67;2.45;;;28.10;99.90;;;;;;5050739;28;20075;-60
2023/09/15 12:23:56;;;;;;;4.40;3.08;;;28.10;99.90;;;;;;5051284;28;20025;-60
2023/09/15 12:26:25;;;;;;;4.93;2.95;;;28.10;99.90;;;;;;5050666;28;20037;-60
2023/09/15 12:28:53;;;;;;;4.25;2.53;;;28.10;99.90;;;;;;5050997;28;20501;-60
2023/09/15 12:31:22;;;;;;;4.78;2.80;;;28.30;99.90;;;;;;5050879;28;20048;-59
2023/09/15 12:33:54;;;;;;;3.33;2.60;;;28.40;99.90;;;;;;5050986;28;20021;-59
2023/09/15 12:36:21;;;;;;;3.72;2.58;;;28.60;99.90;;;;;;5050822;28;20052;-59
2023/09/15 12:38:53;;;;;;;3.15;2.47;;;28.60;99.90;;;;;;5050933;28;20033;-60
2023/09/15 12:41:20;;;;;;;3.55;3.03;;;28.40;99.90;;;;;;5050804;28;20078;-60
2023/09/15 12:43:45;;;;;;;6.13;2.63;;;28.40;99.90;;;;;;5050648;28;20029;-59